TNCB/BON METAR and TAF weather

Enter ICAO airport designator
Station Type Date Time Source
TNCB METAR 2021/03/01 21:55 UTC NOAA

TNCB 012155Z 07014KT 030V110 CAVOK 27/19 Q1011


Station Type Date Time Source
TNCB Decoded METAR 2021/03/01 21:55 UTC NOAA

Flamingo Airport, Bonaire, Netherlands Antilles (TNCB) 12-09N 068-17W 7M
Mar 01, 2021 - 04:55 PM EST / 2021.03.01 2155 UTC
Wind: from the ENE (070 degrees) at 16 MPH (14 KT) (direction variable):0
Visibility: greater than 7 mile(s):0
Temperature: 80 F (27 C)
Dew Point: 66 F (19 C)
Relative Humidity: 61%
Pressure (altimeter): 29.85 in. Hg (1011 hPa)
ob: TNCB 012155Z 07014KT 030V110 CAVOK 27/19 Q1011
cycle: 22

Station Type Date Time Source
TNCB TAF 2021/03/01 18:27 UTC NOAA

TAF TAF TNCB 011708Z 0118/0224 09014KT 9999 SCT025 PROB40
TEMPO 0206/0220 09015G25KT 6000 -SHRA SCT020TCU

Example: see airport list